Time;durP1;ratioP1;P1;durP2;ratioP2;P2;SDS_P1;SDS_P2;PMS_P1;PMS_P2;Temp;Humidity;BMP_temperature;BMP_pressure;BME280_temperature;BME280_humidity;BME280_pressure;Samples;Min_cycle;Max_cycle;Signal;HPM_P1;HPM_P2
2022/07/28 00:02:07;;;;;;;5.53;1.80;;;;;;;;;;5090212;28;20048;-82
2022/07/28 00:04:35;;;;;;;10.68;2.45;;;;;;;;;;5101661;28;20047;-82
2022/07/28 00:07:03;;;;;;;6.07;1.75;;;;;;;;;;5098869;28;20062;-82
2022/07/28 00:09:31;;;;;;;5.35;1.88;;;;;;;;;;5101295;28;20048;-82
2022/07/28 00:12:23;;;;;;;3.80;1.92;;;;;;;;;;5099142;28;20424;-83
2022/07/28 00:29:32;;;;;;;4.70;1.83;;;;;;;;;;5100688;28;20119;-88
2022/07/28 00:32:19;;;;;;;3.33;1.60;;;;;;;;;;5100948;28;20138;-82
2022/07/28 00:35:12;;;;;;;4.45;2.08;;;;;;;;;;5099033;28;20176;-82
2022/07/28 00:37:41;;;;;;;5.35;1.88;;;;;;;;;;5099611;28;20039;-82
2022/07/28 00:40:10;;;;;;;5.93;2.00;;;;;;;;;;5097485;28;20067;-82
2022/07/28 00:42:37;;;;;;;3.35;1.60;;;;;;;;;;5100633;28;20097;-82
2022/07/28 00:45:30;;;;;;;3.90;2.00;;;;;;;;;;5099280;28;20040;-82
2022/07/28 01:11:58;;;;;;;6.15;1.80;;;;;;;;;;5024421;28;20146;-85
2022/07/28 01:15:51;;;;;;;3.70;1.67;;;;;;;;;;5031034;28;20049;-86
2022/07/28 01:18:45;;;;;;;3.47;1.60;;;;;;;;;;5030777;28;20049;-85
2022/07/28 01:22:20;;;;;;;6.05;1.70;;;;;;;;;;5023005;28;20049;-85
2022/07/28 01:25:38;;;;;;;4.80;1.65;;;;;;;;;;5003830;28;20058;-84
2022/07/28 01:28:43;;;;;;;3.30;1.70;;;;;;;;;;5031603;28;20056;-84
2022/07/28 01:31:39;;;;;;;5.80;2.30;;;;;;;;;;5036334;28;20517;-84
2022/07/28 01:34:22;;;;;;;5.90;2.30;;;;;;;;;;5032881;28;20045;-84
2022/07/28 01:37:25;;;;;;;3.97;1.80;;;;;;;;;;5067437;28;20600;-84
2022/07/28 01:39:57;;;;;;;6.03;1.52;;;;;;;;;;5107074;28;20035;-84
2022/07/28 01:42:56;;;;;;;4.63;1.42;;;;;;;;;;5106936;28;20051;-84
2022/07/28 01:45:53;;;;;;;3.95;1.45;;;;;;;;;;5120529;27;20028;-83
2022/07/28 01:48:23;;;;;;;5.40;1.80;;;;;;;;;;5078547;28;20448;-83
2022/07/28 01:50:54;;;;;;;6.05;2.53;;;;;;;;;;5106895;28;20040;-82
2022/07/28 01:56:18;;;;;;;4.63;2.30;;;;;;;;;;5105786;28;20571;-83
2022/07/28 01:58:50;;;;;;;3.38;1.77;;;;;;;;;;5105661;28;20039;-82
2022/07/28 02:01:24;;;;;;;5.15;1.88;;;;;;;;;;5102722;28;20132;-82
2022/07/28 02:03:55;;;;;;;3.28;1.58;;;;;;;;;;5120426;27;20517;-82
2022/07/28 02:06:24;;;;;;;4.68;1.98;;;;;;;;;;5093249;28;20047;-82
2022/07/28 02:08:53;;;;;;;6.20;2.15;;;;;;;;;;5105167;28;20074;-83
2022/07/28 02:11:48;;;;;;;4.03;1.75;;;;;;;;;;5115573;27;20053;-82
2022/07/28 02:33:02;;;;;;;4.68;1.55;;;;;;;;;;5105335;28;20066;-82
2022/07/28 03:09:45;;;;;;;5.47;1.60;;;;;;;;;;5053793;28;20054;-82
2022/07/28 03:12:19;;;;;;;4.18;1.85;;;;;;;;;;5089984;28;20074;-82
2022/07/28 03:48:09;;;;;;;6.43;1.98;;;;;;;;;;5099626;28;20035;-82
2022/07/28 03:50:41;;;;;;;4.78;1.67;;;;;;;;;;5102144;28;20507;-82
2022/07/28 04:21:44;;;;;;;4.65;1.80;;;;;;;;;;5076663;28;20097;-83
2022/07/28 04:24:15;;;;;;;6.20;2.03;;;;;;;;;;5077796;28;20032;-82
2022/07/28 04:51:25;;;;;;;3.67;1.98;;;;;;;;;;5021392;28;20083;-87
2022/07/28 04:56:01;;;;;;;3.70;1.98;;;;;;;;;;4973958;28;20125;-86
2022/07/28 05:00:30;;;;;;;6.95;2.25;;;;;;;;;;4931880;28;20434;-86
2022/07/28 05:10:03;;;;;;;6.78;2.05;;;;;;;;;;4976823;28;20524;-86
2022/07/28 05:12:31;;;;;;;5.75;2.03;;;;;;;;;;4969601;28;20106;-82
2022/07/28 05:14:59;;;;;;;6.28;2.05;;;;;;;;;;4975669;28;20413;-82
2022/07/28 05:17:27;;;;;;;4.88;2.35;;;;;;;;;;4976177;28;20077;-82
2022/07/28 05:19:55;;;;;;;5.25;2.13;;;;;;;;;;4959800;28;20058;-82
2022/07/28 05:22:56;;;;;;;4.47;1.80;;;;;;;;;;4972648;28;20106;-82
2022/07/28 05:25:47;;;;;;;7.35;2.55;;;;;;;;;;4971321;28;20054;-82
2022/07/28 05:28:15;;;;;;;4.40;2.00;;;;;;;;;;4975967;28;20059;-82
2022/07/28 05:30:47;;;;;;;4.25;2.30;;;;;;;;;;5006891;28;20055;-82
2022/07/28 05:33:16;;;;;;;5.13;1.90;;;;;;;;;;5053770;28;20460;-82
2022/07/28 05:35:49;;;;;;;5.28;1.92;;;;;;;;;;5033812;28;20152;-82
2022/07/28 05:38:41;;;;;;;5.50;2.10;;;;;;;;;;5027107;28;20048;-82
2022/07/28 05:41:09;;;;;;;8.63;2.13;;;;;;;;;;5033610;28;20526;-82
2022/07/28 05:43:38;;;;;;;11.05;2.03;;;;;;;;;;5101185;27;20130;-83
2022/07/28 05:46:05;;;;;;;4.22;2.05;;;;;;;;;;5105792;28;20036;-82
2022/07/28 05:48:33;;;;;;;8.75;2.40;;;;;;;;;;5063932;28;20489;-82
2022/07/28 05:51:27;;;;;;;6.97;2.20;;;;;;;;;;5105264;28;20423;-82
2022/07/28 05:54:21;;;;;;;5.40;2.13;;;;;;;;;;5105101;28;20035;-82
2022/07/28 05:56:49;;;;;;;4.50;2.05;;;;;;;;;;5106039;28;20096;-82
2022/07/28 05:59:21;;;;;;;5.10;2.35;;;;;;;;;;5120615;27;20509;-82
2022/07/28 06:01:53;;;;;;;5.80;2.22;;;;;;;;;;5085871;28;20067;-82
2022/07/28 06:04:21;;;;;;;4.97;2.00;;;;;;;;;;5104328;28;20126;-83
2022/07/28 06:06:59;;;;;;;7.82;2.40;;;;;;;;;;5104595;28;20108;-82
2022/07/28 06:09:27;;;;;;;6.68;2.20;;;;;;;;;;5105680;28;20043;-82
2022/07/28 06:11:55;;;;;;;5.82;1.77;;;;;;;;;;5105658;28;20044;-82
2022/07/28 06:14:27;;;;;;;7.72;1.80;;;;;;;;;;5087363;28;20047;-82
2022/07/28 06:16:55;;;;;;;5.40;1.58;;;;;;;;;;5103500;28;20085;-82
2022/07/28 06:19:23;;;;;;;8.13;1.90;;;;;;;;;;5105675;28;20126;-82
2022/07/28 06:21:51;;;;;;;3.95;1.67;;;;;;;;;;5099913;28;20035;-82
2022/07/28 06:24:23;;;;;;;6.72;1.80;;;;;;;;;;5104441;28;20050;-82
2022/07/28 06:27:16;;;;;;;7.53;2.45;;;;;;;;;;5102870;28;20031;-81
2022/07/28 06:29:43;;;;;;;7.25;1.60;;;;;;;;;;5103830;28;20036;-83
2022/07/28 06:32:33;;;;;;;3.95;1.20;;;;;;;;;;5082590;28;20508;-83
2022/07/28 06:35:06;;;;;;;4.35;1.10;;;;;;;;;;5100447;28;20039;-81
2022/07/28 06:40:25;;;;;;;4.15;1.83;;;;;;;;;;5104699;28;20122;-81
2022/07/28 06:42:53;;;;;;;6.20;1.42;;;;;;;;;;5086380;28;20050;-82
2022/07/28 06:45:21;;;;;;;4.68;1.20;;;;;;;;;;5102634;28;20071;-81
2022/07/28 06:47:49;;;;;;;3.08;1.10;;;;;;;;;;5118058;27;20063;-82
2022/07/28 06:50:21;;;;;;;5.25;1.15;;;;;;;;;;5106285;28;20086;-81
2022/07/28 06:52:57;;;;;;;3.90;1.20;;;;;;;;;;5093725;28;20058;-81
2022/07/28 06:55:25;;;;;;;3.17;1.08;;;;;;;;;;5118738;27;20039;-82
2022/07/28 06:58:02;;;;;;;3.85;1.00;;;;;;;;;;5104566;28;20042;-82
2022/07/28 07:00:35;;;;;;;6.70;1.00;;;;;;;;;;5117046;27;20051;-81
2022/07/28 07:03:03;;;;;;;4.03;1.13;;;;;;;;;;5105115;28;20039;-81
2022/07/28 07:05:35;;;;;;;3.95;0.90;;;;;;;;;;5103020;28;20039;-81
2022/07/28 07:08:09;;;;;;;2.90;0.90;;;;;;;;;;5097664;28;20039;-82
2022/07/28 07:10:46;;;;;;;4.18;1.23;;;;;;;;;;5104085;27;20047;-81
2022/07/28 07:13:13;;;;;;;4.63;1.45;;;;;;;;;;5094837;28;20047;-81
2022/07/28 07:15:41;;;;;;;10.60;1.17;;;;;;;;;;5102514;28;20093;-81
2022/07/28 07:18:09;;;;;;;4.30;1.10;;;;;;;;;;5100506;28;20100;-82
2022/07/28 07:20:37;;;;;;;4.50;0.70;;;;;;;;;;5111075;27;20043;-83
2022/07/28 07:23:05;;;;;;;7.35;1.67;;;;;;;;;;5103968;28;20611;-82
2022/07/28 07:26:00;;;;;;;2.05;0.80;;;;;;;;;;5104570;28;20027;-82
2022/07/28 07:28:33;;;;;;;2.47;0.85;;;;;;;;;;5117296;27;20043;-82
2022/07/28 07:31:05;;;;;;;3.50;0.70;;;;;;;;;;5102304;28;20043;-82
2022/07/28 07:33:33;;;;;;;3.60;0.88;;;;;;;;;;5103589;28;20041;-82
2022/07/28 07:36:01;;;;;;;4.47;1.02;;;;;;;;;;5103896;28;20932;-82
2022/07/28 07:38:33;;;;;;;5.30;1.08;;;;;;;;;;5104402;28;20043;-81
2022/07/28 07:41:01;;;;;;;3.70;0.98;;;;;;;;;;5120750;27;20037;-82
2022/07/28 07:43:29;;;;;;;6.95;1.15;;;;;;;;;;5085650;28;20997;-82
2022/07/28 07:45:58;;;;;;;6.20;1.05;;;;;;;;;;5117306;27;20127;-81
2022/07/28 07:48:37;;;;;;;2.95;0.80;;;;;;;;;;5099039;28;20039;-82
2022/07/28 07:51:07;;;;;;;4.28;0.93;;;;;;;;;;5101124;28;20851;-83
2022/07/28 07:53:47;;;;;;;3.28;0.90;;;;;;;;;;5117602;27;20632;-83
2022/07/28 07:56:19;;;;;;;3.40;1.58;;;;;;;;;;5115826;27;20071;-84
2022/07/28 07:59:12;;;;;;;4.07;1.10;;;;;;;;;;5116522;27;20537;-82
2022/07/28 08:01:49;;;;;;;4.57;1.10;;;;;;;;;;5102520;28;21001;-82
2022/07/28 08:04:17;;;;;;;5.30;1.10;;;;;;;;;;5101446;28;20039;-82
2022/07/28 08:06:52;;;;;;;4.93;1.17;;;;;;;;;;5102086;28;20036;-83
2022/07/28 08:09:19;;;;;;;2.63;0.93;;;;;;;;;;5098498;28;20096;-82
2022/07/28 08:11:47;;;;;;;6.22;1.48;;;;;;;;;;5103057;28;20035;-81
2022/07/28 08:14:16;;;;;;;7.35;1.05;;;;;;;;;;5098937;28;20032;-82
2022/07/28 08:16:43;;;;;;;4.45;0.98;;;;;;;;;;5091861;28;20063;-82
2022/07/28 08:19:37;;;;;;;2.33;1.10;;;;;;;;;;5098854;28;20085;-84
2022/07/28 08:22:09;;;;;;;5.38;1.73;;;;;;;;;;5101735;28;20051;-84
2022/07/28 08:24:38;;;;;;;4.47;1.10;;;;;;;;;;5095012;28;20441;-85
2022/07/28 08:27:05;;;;;;;4.47;0.85;;;;;;;;;;5073466;28;20053;-83
2022/07/28 08:29:33;;;;;;;7.32;1.10;;;;;;;;;;5098375;28;20044;-84
2022/07/28 08:32:03;;;;;;;7.50;1.70;;;;;;;;;;5106692;27;20502;-83
2022/07/28 08:34:30;;;;;;;3.13;1.00;;;;;;;;;;5090485;28;20065;-83
2022/07/28 08:37:04;;;;;;;6.25;1.30;;;;;;;;;;5100377;28;20063;-84
2022/07/28 08:39:48;;;;;;;6.28;1.08;;;;;;;;;;5108352;27;20052;-84
2022/07/28 08:42:28;;;;;;;5.40;0.90;;;;;;;;;;5102369;28;20055;-84
2022/07/28 08:45:17;;;;;;;5.20;1.10;;;;;;;;;;5099088;28;20093;-85
2022/07/28 08:48:04;;;;;;;5.75;1.05;;;;;;;;;;5096621;28;20048;-87
2022/07/28 08:50:50;;;;;;;3.25;0.85;;;;;;;;;;5081273;28;20043;-85
2022/07/28 08:53:39;;;;;;;2.97;0.88;;;;;;;;;;5076778;28;20451;-84
2022/07/28 08:56:13;;;;;;;2.78;1.00;;;;;;;;;;5077825;28;20043;-84
2022/07/28 08:59:06;;;;;;;3.85;1.70;;;;;;;;;;5111052;28;20097;-83
2022/07/28 09:01:34;;;;;;;5.85;1.70;;;;;;;;;;5091764;28;20068;-84
2022/07/28 09:04:08;;;;;;;8.80;1.83;;;;;;;;;;5114282;28;20043;-83
2022/07/28 09:06:40;;;;;;;6.70;1.40;;;;;;;;;;5095575;28;20040;-83
2022/07/28 09:09:10;;;;;;;5.20;1.50;;;;;;;;;;5075774;28;20051;-84
2022/07/28 09:11:43;;;;;;;5.32;1.67;;;;;;;;;;5109910;28;20169;-84
2022/07/28 09:14:30;;;;;;;5.43;1.52;;;;;;;;;;5092672;28;20043;-83
2022/07/28 09:17:02;;;;;;;4.90;1.83;;;;;;;;;;5079254;28;20051;-84
2022/07/28 09:19:31;;;;;;;11.48;1.90;;;;;;;;;;5106384;28;20055;-84
2022/07/28 09:22:07;;;;;;;5.97;1.58;;;;;;;;;;5098427;28;20469;-84
2022/07/28 09:24:49;;;;;;;3.95;1.50;;;;;;;;;;5075889;28;20500;-84
2022/07/28 09:27:18;;;;;;;8.05;1.60;;;;;;;;;;5097163;28;20051;-84
2022/07/28 09:30:26;;;;;;;8.57;1.50;;;;;;;;;;5112135;28;20058;-83
2022/07/28 09:33:19;;;;;;;3.33;1.30;;;;;;;;;;5072746;28;20036;-84
2022/07/28 09:36:13;;;;;;;3.15;1.30;;;;;;;;;;5090814;28;20047;-84
2022/07/28 09:39:22;;;;;;;3.63;1.40;;;;;;;;;;5090432;28;20173;-83
2022/07/28 09:43:15;;;;;;;7.15;1.20;;;;;;;;;;5048391;28;20123;-82
2022/07/28 09:46:02;;;;;;;5.88;1.60;;;;;;;;;;4997482;28;20064;-84
2022/07/28 09:48:52;;;;;;;5.10;1.25;;;;;;;;;;5048818;28;20059;-84
2022/07/28 09:51:35;;;;;;;5.70;1.63;;;;;;;;;;5050753;28;20049;-83
2022/07/28 09:55:19;;;;;;;3.08;1.42;;;;;;;;;;5050136;28;20542;-85
2022/07/28 09:59:46;;;;;;;6.75;1.30;;;;;;;;;;5026872;28;20534;-85
2022/07/28 10:03:27;;;;;;;3.72;1.42;;;;;;;;;;4996745;28;20546;-85
2022/07/28 10:06:27;;;;;;;5.65;1.30;;;;;;;;;;4988687;28;20527;-85
2022/07/28 10:09:49;;;;;;;3.95;1.40;;;;;;;;;;5013022;28;20044;-86
2022/07/28 10:13:57;;;;;;;5.32;1.20;;;;;;;;;;5013651;28;20175;-84
2022/07/28 10:17:30;;;;;;;4.80;1.00;;;;;;;;;;4972246;28;20726;-85
2022/07/28 10:20:17;;;;;;;6.38;1.25;;;;;;;;;;4931048;28;20054;-85
2022/07/28 10:23:05;;;;;;;3.25;1.02;;;;;;;;;;4966250;28;20113;-85
2022/07/28 10:26:45;;;;;;;3.65;0.90;;;;;;;;;;4949193;28;20063;-84
2022/07/28 10:29:17;;;;;;;6.03;1.10;;;;;;;;;;4957731;28;20140;-87
2022/07/28 10:32:03;;;;;;;4.55;1.48;;;;;;;;;;5006174;28;20112;-86
2022/07/28 10:34:44;;;;;;;3.33;0.77;;;;;;;;;;4988810;28;20133;-86
2022/07/28 10:37:20;;;;;;;2.95;0.90;;;;;;;;;;4973532;28;20137;-87
2022/07/28 10:40:49;;;;;;;4.47;1.00;;;;;;;;;;5012449;28;20054;-85
2022/07/28 10:43:27;;;;;;;4.20;0.90;;;;;;;;;;4989549;28;20317;-85
2022/07/28 10:46:34;;;;;;;2.90;0.90;;;;;;;;;;5001971;28;20042;-85
2022/07/28 10:49:11;;;;;;;4.68;1.00;;;;;;;;;;5044426;28;20144;-85
2022/07/28 10:52:19;;;;;;;2.33;0.70;;;;;;;;;;5027155;28;20050;-85
2022/07/28 10:55:51;;;;;;;3.07;0.90;;;;;;;;;;5025744;28;20042;-85
2022/07/28 10:58:41;;;;;;;6.03;1.13;;;;;;;;;;5094217;28;20301;-85
2022/07/28 11:01:35;;;;;;;2.83;0.82;;;;;;;;;;5083030;28;20120;-85
2022/07/28 11:04:44;;;;;;;3.38;0.80;;;;;;;;;;5102854;28;20040;-84
2022/07/28 11:07:38;;;;;;;4.18;1.00;;;;;;;;;;5101774;28;20028;-84
2022/07/28 11:10:48;;;;;;;4.05;0.93;;;;;;;;;;5119100;27;20493;-84
2022/07/28 11:13:35;;;;;;;1.27;0.65;;;;;;;;;;5116438;27;20044;-84
2022/07/28 11:16:20;;;;;;;3.55;0.82;;;;;;;;;;5100697;27;20047;-85
2022/07/28 11:19:10;;;;;;;2.42;0.85;;;;;;;;;;5075807;28;20128;-85
2022/07/28 11:22:43;;;;;;;3.30;1.17;;;;;;;;;;5050151;28;20053;-84
2022/07/28 11:25:30;;;;;;;2.03;0.80;;;;;;;;;;5037940;28;20056;-85
2022/07/28 11:28:03;;;;;;;4.35;1.02;;;;;;;;;;5044064;28;20048;-86
2022/07/28 11:30:54;;;;;;;6.05;0.93;;;;;;;;;;5023494;28;20523;-84
2022/07/28 11:34:02;;;;;;;4.45;1.08;;;;;;;;;;5039716;28;20053;-84
2022/07/28 11:37:02;;;;;;;3.65;0.80;;;;;;;;;;5057770;28;20049;-85
2022/07/28 11:39:44;;;;;;;2.58;1.00;;;;;;;;;;5060517;28;20052;-84
2022/07/28 11:42:28;;;;;;;2.95;1.00;;;;;;;;;;5019814;28;20059;-84
2022/07/28 11:45:21;;;;;;;3.92;1.20;;;;;;;;;;5059798;28;20792;-84
2022/07/28 11:48:22;;;;;;;2.45;0.75;;;;;;;;;;5045603;28;20215;-83
2022/07/28 11:51:15;;;;;;;3.53;1.17;;;;;;;;;;5045987;28;20068;-84
2022/07/28 11:53:44;;;;;;;3.80;1.00;;;;;;;;;;5101256;27;20123;-84
2022/07/28 11:56:15;;;;;;;3.13;0.98;;;;;;;;;;5109720;27;20054;-84
2022/07/28 11:58:42;;;;;;;5.30;1.13;;;;;;;;;;5099149;28;20134;-87
2022/07/28 12:01:30;;;;;;;4.85;1.35;;;;;;;;;;5112468;27;20054;-85
2022/07/28 12:04:14;;;;;;;5.15;1.05;;;;;;;;;;5101097;28;20043;-83
2022/07/28 12:06:42;;;;;;;4.00;1.45;;;;;;;;;;5127080;27;20040;-81
2022/07/28 12:09:29;;;;;;;2.13;1.20;;;;;;;;;;5118308;27;20039;-85
2022/07/28 12:12:13;;;;;;;3.40;1.35;;;;;;;;;;5097914;28;20080;-84
2022/07/28 12:14:50;;;;;;;8.80;1.23;;;;;;;;;;5098540;28;20036;-89
2022/07/28 12:17:31;;;;;;;2.05;1.02;;;;;;;;;;5087557;28;20043;-86
2022/07/28 12:20:09;;;;;;;3.67;1.85;;;;;;;;;;5107445;27;20050;-85
2022/07/28 12:23:06;;;;;;;2.65;1.40;;;;;;;;;;5099533;28;20151;-87
2022/07/28 12:25:41;;;;;;;3.20;1.20;;;;;;;;;;5071739;28;20032;-84
2022/07/28 12:28:47;;;;;;;3.83;1.30;;;;;;;;;;5093502;28;20143;-84
2022/07/28 12:32:00;;;;;;;3.67;1.30;;;;;;;;;;5115770;27;20554;-84
2022/07/28 12:34:51;;;;;;;3.40;1.35;;;;;;;;;;5096275;28;20564;-84
2022/07/28 12:37:22;;;;;;;2.95;1.30;;;;;;;;;;5080193;28;20175;-84
2022/07/28 12:39:50;;;;;;;4.25;1.20;;;;;;;;;;5076449;28;20237;-84
2022/07/28 12:43:06;;;;;;;4.13;1.15;;;;;;;;;;5099981;28;20461;-86
2022/07/28 12:47:13;;;;;;;4.82;1.67;;;;;;;;;;5084445;28;20035;-87
2022/07/28 12:50:23;;;;;;;3.35;1.38;;;;;;;;;;4942936;28;20051;-88
2022/07/28 12:53:24;;;;;;;4.32;1.38;;;;;;;;;;4936920;28;20055;-86
2022/07/28 12:57:03;;;;;;;4.90;1.45;;;;;;;;;;4941918;28;20533;-86
2022/07/28 13:00:33;;;;;;;4.30;1.50;;;;;;;;;;4908272;29;20055;-86
2022/07/28 13:05:09;;;;;;;2.38;1.20;;;;;;;;;;4848147;29;20054;-85
2022/07/28 13:09:27;;;;;;;3.40;1.48;;;;;;;;;;4810840;29;20198;-84
2022/07/28 13:13:32;;;;;;;3.25;1.20;;;;;;;;;;4757393;29;20502;-87
2022/07/28 13:17:38;;;;;;;2.03;0.98;;;;;;;;;;4847255;29;20492;-86
2022/07/28 13:21:28;;;;;;;4.13;1.33;;;;;;;;;;4844024;29;20057;-85
2022/07/28 13:25:09;;;;;;;5.82;1.30;;;;;;;;;;4846505;29;20056;-85
2022/07/28 13:28:42;;;;;;;2.72;1.08;;;;;;;;;;4894415;29;20088;-87
2022/07/28 13:31:43;;;;;;;4.18;1.17;;;;;;;;;;4894927;29;20059;-87
2022/07/28 13:34:30;;;;;;;5.10;1.38;;;;;;;;;;4908019;29;20059;-86
2022/07/28 13:37:16;;;;;;;2.55;1.23;;;;;;;;;;5011719;28;20100;-87
2022/07/28 13:40:40;;;;;;;3.00;1.30;;;;;;;;;;5013517;28;20111;-87
2022/07/28 13:44:21;;;;;;;3.10;1.23;;;;;;;;;;4974602;28;20868;-86
2022/07/28 13:48:15;;;;;;;2.70;1.52;;;;;;;;;;4966241;28;20828;-86
2022/07/28 13:52:36;;;;;;;4.78;1.40;;;;;;;;;;4961123;28;20058;-86
2022/07/28 13:56:43;;;;;;;3.53;1.40;;;;;;;;;;4977359;28;20054;-84
2022/07/28 14:00:34;;;;;;;4.70;1.77;;;;;;;;;;4974588;28;20062;-85
2022/07/28 14:03:36;;;;;;;4.68;1.20;;;;;;;;;;4907236;29;20305;-85
2022/07/28 14:12:02;;;;;;;5.72;1.45;;;;;;;;;;4924355;29;20039;-84
2022/07/28 14:16:44;;;;;;;4.45;1.02;;;;;;;;;;4949925;28;20229;-85
2022/07/28 14:21:04;;;;;;;4.55;1.00;;;;;;;;;;4961651;28;20126;-85
2022/07/28 14:24:51;;;;;;;3.00;1.00;;;;;;;;;;4918023;29;20048;-86
2022/07/28 14:27:19;;;;;;;2.08;1.02;;;;;;;;;;4905574;29;20114;-84
2022/07/28 14:29:55;;;;;;;4.25;1.05;;;;;;;;;;4903753;29;20063;-85
2022/07/28 14:32:48;;;;;;;3.13;1.20;;;;;;;;;;4913823;29;20059;-84
2022/07/28 14:35:22;;;;;;;4.80;1.50;;;;;;;;;;4937453;28;20174;-87
2022/07/28 14:38:07;;;;;;;2.03;1.00;;;;;;;;;;4948992;28;20194;-86
2022/07/28 14:41:25;;;;;;;1.92;1.00;;;;;;;;;;4951009;28;20473;-86
2022/07/28 14:45:18;;;;;;;4.80;1.25;;;;;;;;;;4934389;28;20082;-85
2022/07/28 14:48:15;;;;;;;3.20;1.50;;;;;;;;;;4983881;28;20496;-87
2022/07/28 14:52:33;;;;;;;3.78;1.17;;;;;;;;;;4983111;28;20050;-85
2022/07/28 14:56:42;;;;;;;2.20;1.00;;;;;;;;;;5031693;28;20096;-86
2022/07/28 15:00:28;;;;;;;4.28;1.00;;;;;;;;;;5036999;28;20073;-86
2022/07/28 15:04:55;;;;;;;;;;;;;;;;;;4981727;28;20046;-86
2022/07/28 15:08:36;;;;;;;3.47;1.00;;;;;;;;;;5017490;28;20296;-88
2022/07/28 15:11:46;;;;;;;2.13;0.82;;;;;;;;;;4952454;28;20054;-88
2022/07/28 15:16:42;;;;;;;3.70;1.00;;;;;;;;;;4968342;28;20050;-87
2022/07/28 15:21:12;;;;;;;2.63;1.10;;;;;;;;;;4898808;29;20059;-86
2022/07/28 15:25:23;;;;;;;2.97;1.10;;;;;;;;;;4901809;29;20049;-87
2022/07/28 15:28:47;;;;;;;5.95;2.63;;;;;;;;;;4849028;29;20061;-86
2022/07/28 15:32:32;;;;;;;2.58;0.88;;;;;;;;;;4861791;29;20467;-88
2022/07/28 15:36:00;;;;;;;4.22;1.20;;;;;;;;;;4834725;29;20070;-85
2022/07/28 15:39:14;;;;;;;2.83;1.20;;;;;;;;;;4835939;29;20060;-84
2022/07/28 15:42:52;;;;;;;4.63;1.13;;;;;;;;;;4863910;29;20057;-87
2022/07/28 15:46:59;;;;;;;3.05;1.13;;;;;;;;;;4862688;29;20060;-86
2022/07/28 15:51:34;;;;;;;2.33;0.88;;;;;;;;;;4923248;28;20037;-85
2022/07/28 15:55:59;;;;;;;6.03;1.65;;;;;;;;;;4978423;28;20899;-85
2022/07/28 15:59:04;;;;;;;6.63;1.42;;;;;;;;;;5001202;28;20710;-86
2022/07/28 16:02:18;;;;;;;2.55;1.00;;;;;;;;;;5024856;28;20699;-86
2022/07/28 16:05:05;;;;;;;2.67;0.80;;;;;;;;;;5003661;28;20044;-86
2022/07/28 16:26:10;;;;;;;2.75;0.95;;;;;;;;;;5024895;28;20135;-87
2022/07/28 16:30:07;;;;;;;1.52;0.80;;;;;;;;;;4978278;28;20109;-85
2022/07/28 16:32:58;;;;;;;5.70;1.15;;;;;;;;;;4948387;28;20058;-83
2022/07/28 16:36:35;;;;;;;1.63;0.80;;;;;;;;;;4955498;28;20755;-84
2022/07/28 16:41:49;;;;;;;4.20;0.88;;;;;;;;;;4962576;28;20050;-84
2022/07/28 16:46:32;;;;;;;3.13;0.80;;;;;;;;;;4967825;28;20584;-85
2022/07/28 16:49:44;;;;;;;4.00;0.90;;;;;;;;;;4934195;28;20062;-86
2022/07/28 16:52:46;;;;;;;3.35;0.90;;;;;;;;;;4911222;28;20154;-87
2022/07/28 16:55:47;;;;;;;3.13;1.02;;;;;;;;;;4934296;28;20051;-83
2022/07/28 16:59:09;;;;;;;5.28;1.05;;;;;;;;;;4932515;28;20051;-84
2022/07/28 17:02:43;;;;;;;2.92;0.80;;;;;;;;;;4953278;28;20054;-84
2022/07/28 17:05:12;;;;;;;3.55;0.80;;;;;;;;;;4957652;28;20062;-86
2022/07/28 17:07:43;;;;;;;2.33;0.85;;;;;;;;;;4958667;28;20087;-86
2022/07/28 17:10:14;;;;;;;2.80;0.93;;;;;;;;;;4972696;28;20055;-86
2022/07/28 17:13:52;;;;;;;4.35;0.90;;;;;;;;;;4959626;28;20066;-84
2022/07/28 17:18:06;;;;;;;2.42;0.90;;;;;;;;;;5000841;28;20068;-85
2022/07/28 17:20:55;;;;;;;2.60;0.95;;;;;;;;;;5001062;28;20081;-86
2022/07/28 17:27:53;;;;;;;4.60;0.90;;;;;;;;;;4995476;28;20135;-87
2022/07/28 17:37:13;;;;;;;3.88;0.90;;;;;;;;;;4963915;28;20078;-83
2022/07/28 17:41:32;;;;;;;1.80;0.77;;;;;;;;;;4977138;28;20097;-84
2022/07/28 17:44:22;;;;;;;6.88;1.25;;;;;;;;;;4931499;29;20118;-86
2022/07/28 17:47:05;;;;;;;1.38;0.80;;;;;;;;;;4944623;28;20063;-84
2022/07/28 17:49:35;;;;;;;4.32;1.00;;;;;;;;;;4944589;28;20063;-85
2022/07/28 17:52:21;;;;;;;2.08;0.85;;;;;;;;;;4933734;28;20189;-86
2022/07/28 18:02:41;;;;;;;5.65;1.20;;;;;;;;;;5053756;28;20048;-88
2022/07/28 18:05:31;;;;;;;2.38;0.90;;;;;;;;;;5052598;28;20060;-87
2022/07/28 18:08:16;;;;;;;1.85;1.02;;;;;;;;;;5010355;28;20056;-86
2022/07/28 18:11:01;;;;;;;3.10;1.08;;;;;;;;;;5020259;28;20469;-85
2022/07/28 18:14:44;;;;;;;2.97;1.10;;;;;;;;;;5059360;28;20087;-88
2022/07/28 18:19:15;;;;;;;2.33;0.60;;;;;;;;;;5013132;28;20135;-88
2022/07/28 18:23:20;;;;;;;3.25;1.08;;;;;;;;;;5012947;28;20046;-87
2022/07/28 18:26:43;;;;;;;2.47;0.80;;;;;;;;;;4988468;28;20133;-87
2022/07/28 18:30:06;;;;;;;3.00;1.02;;;;;;;;;;5003710;28;20054;-87
2022/07/28 18:33:16;;;;;;;3.40;1.00;;;;;;;;;;4991536;28;20649;-84
2022/07/28 18:35:44;;;;;;;4.35;0.85;;;;;;;;;;4991710;28;20077;-87
2022/07/28 18:38:30;;;;;;;2.90;1.02;;;;;;;;;;4966194;28;21026;-85
2022/07/28 18:41:27;;;;;;;2.40;1.05;;;;;;;;;;4988700;28;20634;-86
2022/07/28 18:44:14;;;;;;;3.85;1.00;;;;;;;;;;5002445;28;20046;-85
2022/07/28 18:56:50;;;;;;;2.33;1.00;;;;;;;;;;4922534;29;20998;-84
2022/07/28 19:00:50;;;;;;;4.95;1.23;;;;;;;;;;4915277;29;20211;-86
2022/07/28 19:04:26;;;;;;;4.07;1.27;;;;;;;;;;4855316;29;20180;-84
2022/07/28 19:07:37;;;;;;;3.00;1.17;;;;;;;;;;4867888;29;20091;-87
2022/07/28 19:10:41;;;;;;;4.57;1.63;;;;;;;;;;4909523;29;20055;-84
2022/07/28 19:15:10;;;;;;;2.78;1.13;;;;;;;;;;4888944;29;20047;-85
2022/07/28 19:19:51;;;;;;;3.75;1.13;;;;;;;;;;4890110;29;20100;-84
2022/07/28 19:23:01;;;;;;;4.40;1.27;;;;;;;;;;4874143;29;20139;-85
2022/07/28 19:25:53;;;;;;;3.35;1.30;;;;;;;;;;4904827;29;20165;-84
2022/07/28 19:28:35;;;;;;;3.40;1.27;;;;;;;;;;4905434;29;20075;-84
2022/07/28 19:31:17;;;;;;;3.58;1.15;;;;;;;;;;4909249;29;20089;-84
2022/07/28 19:34:43;;;;;;;3.25;1.00;;;;;;;;;;4926964;28;20165;-85
2022/07/28 19:37:11;;;;;;;4.32;1.10;;;;;;;;;;4943815;28;20106;-84
2022/07/28 19:39:53;;;;;;;4.10;1.20;;;;;;;;;;4952843;28;20193;-83
2022/07/28 19:42:53;;;;;;;2.60;1.10;;;;;;;;;;4940486;28;20050;-84
2022/07/28 19:45:39;;;;;;;3.20;1.20;;;;;;;;;;4957296;28;20091;-84
2022/07/28 19:48:07;;;;;;;3.75;1.25;;;;;;;;;;4941025;28;20100;-84
2022/07/28 19:50:43;;;;;;;2.55;1.00;;;;;;;;;;4958914;28;20051;-84
2022/07/28 19:53:33;;;;;;;6.47;1.35;;;;;;;;;;4989249;28;20041;-84
2022/07/28 19:56:31;;;;;;;5.68;1.10;;;;;;;;;;5007706;28;20046;-84
2022/07/28 19:59:05;;;;;;;3.45;1.10;;;;;;;;;;5008261;28;20108;-84
2022/07/28 20:01:34;;;;;;;7.75;1.40;;;;;;;;;;5007357;28;20037;-84
2022/07/28 20:05:02;;;;;;;4.05;1.30;;;;;;;;;;5033487;28;20064;-85
2022/07/28 20:14:23;;;;;;;3.88;1.30;;;;;;;;;;4944141;28;20082;-84
2022/07/28 20:19:25;;;;;;;4.82;1.25;;;;;;;;;;4863131;29;20056;-83
2022/07/28 20:23:27;;;;;;;3.15;1.30;;;;;;;;;;4881505;29;20150;-84
2022/07/28 20:26:10;;;;;;;6.57;1.77;;;;;;;;;;4903355;29;20052;-84
2022/07/28 20:29:16;;;;;;;4.57;1.10;;;;;;;;;;4901273;29;20060;-84
2022/07/28 20:31:51;;;;;;;5.93;1.20;;;;;;;;;;4902752;29;20067;-83
